Petaluma, CA (94952)

5:22 AM PST on February 13, 2016 (GMT -0800)
Jessie Lane | | Change Station
CLOSE
Current Station
Personal Weather Station
Location: Petaluma, CA
Elevation: 49 ft
Nearby Weather Stations

Elev 49 ft 38.25 °N, 122.65 °W | Updated 9 minutes ago

Fog
Fog
43.9 °F
Feels Like 44 °F
N
0.0
Wind Variable Wind from WSW

Today
High -- | Low -- °F
--% Chance of Precip.
Yesterday
High -- | Low -- °F
Precip. -- in
Pressure 30.25 in
Visibility 0.2 miles
Clouds Overcast 200 ft
Windchill 44 °F
Dew Point 44 °F
Humidity 99%
Rainfall 0.00 in
Snow Depth Not available.
7:03 AM 5:46 PM
Waxing Crescent, 30% visible
METAR KO69 131315Z AUTO 00000KT 1/4SM OVC002 06/06 A3025 RMK AO1
Pressure 30.25 in
Visibility 0.2 miles
Clouds Overcast 200 ft
Windchill 44 °F
Dew Point 44 °F
Humidity 99%
Rainfall 0.00 in
Snow Depth Not available.
7:03 AM 5:46 PM
Waxing Crescent, 30% visible
METAR KO69 131315Z AUTO 00000KT 1/4SM OVC002 06/06 A3025 RMK AO1

10-Day Weather Forecast

Almanac

Astronomy

Feb. 13, 2016 Rise Set
Actual Time
Civil Twilight
Nautical Twilight
Astronomical Twilight
Moon
Length of Visible Light
Length of Day
Tomorrow will be .
, % of the Moon is Illuminated

Today's Extremes

State Highs State Lows

Community

WunderPhotos

Upload Photos

1,892,547 photos uploaded!

WunderBlog® & News

Nearby

Air Quality

  Air Quality AQ Index Pollutant
Not available.

Snow Depth

Station Depth Elevation

Earthquake Activity

City Distance Mag. Time & Date
Minimum magnitude displayed is 2.5.

Coastal Water Temperatures

Place Temperature

Stations

Nearby Weather Stations

Station Location Temp. Windchill Dew Point Humidity Wind Precip. Elev Updated Type
                   

Watches & Warnings

There are currently no watches in effect.